Time;durP1;ratioP1;P1;durP2;ratioP2;P2;SDS_P1;SDS_P2;PMS_P1;PMS_P2;Temp;Humidity;BMP_temperature;BMP_pressure;BME280_temperature;BME280_humidity;BME280_pressure;Samples;Min_cycle;Max_cycle;Signal;HPM_P1;HPM_P2
2023/08/12 00:01:49;;;;;;;6.22;2.30;;;20.20;99.90;;;;;;5095579;28;20044;-47
2023/08/12 00:04:16;;;;;;;4.72;2.28;;;20.20;99.90;;;;;;5095630;28;20407;-46
2023/08/12 00:06:42;;;;;;;6.35;2.80;;;20.20;99.90;;;;;;5094316;28;20523;-46
2023/08/12 00:09:08;;;;;;;5.88;2.53;;;20.10;99.90;;;;;;5094508;28;20056;-46
2023/08/12 00:11:34;;;;;;;;;;;20.10;99.90;;;;;;5096087;28;20074;-46
2023/08/12 00:14:00;;;;;;;5.27;2.40;;;20.10;99.90;;;;;;5095095;28;20453;-46
2023/08/12 00:16:26;;;;;;;7.50;2.60;;;20.10;99.90;;;;;;5095363;28;20079;-46
2023/08/12 00:18:51;;;;;;;5.30;2.47;;;20.00;99.90;;;;;;5095027;28;20441;-46
2023/08/12 00:21:17;;;;;;;4.22;2.08;;;20.00;99.90;;;;;;5094996;28;20043;-46
2023/08/12 00:23:44;;;;;;;6.97;3.03;;;20.00;99.90;;;;;;5095376;28;20110;-46
2023/08/12 00:26:10;;;;;;;7.53;2.70;;;20.00;99.90;;;;;;5095106;28;20403;-46
2023/08/12 00:28:36;;;;;;;;;;;20.00;99.90;;;;;;5095871;28;20051;-46
2023/08/12 00:31:02;;;;;;;5.68;2.63;;;20.00;99.90;;;;;;5094975;28;19920;-46
2023/08/12 00:33:28;;;;;;;6.68;2.30;;;20.00;99.90;;;;;;5094671;28;20067;-46
2023/08/12 00:35:53;;;;;;;5.07;2.35;;;20.00;99.90;;;;;;5094431;28;20108;-46
2023/08/12 00:38:19;;;;;;;4.57;2.22;;;20.00;99.90;;;;;;5094267;28;20056;-46
2023/08/12 00:40:45;;;;;;;5.05;2.17;;;19.90;99.90;;;;;;5094800;28;20032;-46
2023/08/12 00:43:11;;;;;;;6.00;2.55;;;19.90;99.90;;;;;;5094960;28;20394;-46
2023/08/12 00:45:37;;;;;;;4.35;2.17;;;19.80;99.90;;;;;;5094854;28;20128;-46
2023/08/12 00:48:03;;;;;;;;;;;19.80;99.90;;;;;;5095212;28;20048;-46
2023/08/12 00:50:29;;;;;;;5.37;2.20;;;19.70;99.90;;;;;;5094500;28;19920;-46
2023/08/12 00:52:55;;;;;;;4.63;1.80;;;19.60;99.90;;;;;;5093796;28;20107;-46
2023/08/12 00:55:21;;;;;;;5.80;2.40;;;19.60;99.90;;;;;;5094927;28;20051;-46
2023/08/12 00:57:47;;;;;;;4.45;1.83;;;19.60;99.90;;;;;;5093491;28;20098;-46
2023/08/12 01:00:15;;;;;;;3.42;1.90;;;19.60;99.90;;;;;;5093286;28;20040;-47
2023/08/12 01:02:45;;;;;;;7.00;2.20;;;19.50;99.90;;;;;;5093528;28;20127;-46
2023/08/12 01:05:11;;;;;;;6.50;2.03;;;19.50;99.90;;;;;;5094448;28;20048;-46
2023/08/12 01:07:36;;;;;;;;;;;19.50;99.90;;;;;;5094825;28;20048;-46
2023/08/12 01:10:02;;;;;;;4.63;1.60;;;19.60;99.90;;;;;;5093270;28;20260;-46
2023/08/12 01:13:03;;;;;;;4.47;1.70;;;19.60;99.90;;;;;;5094153;28;20043;-46
2023/08/12 01:15:29;;;;;;;2.85;1.00;;;19.60;99.90;;;;;;5065250;28;20101;-46
2023/08/12 01:17:59;;;;;;;3.10;1.40;;;19.60;99.90;;;;;;5093063;28;20044;-46
2023/08/12 01:20:26;;;;;;;2.90;1.15;;;19.60;99.90;;;;;;5094003;28;20098;-46
2023/08/12 01:23:11;;;;;;;3.88;1.30;;;19.60;99.90;;;;;;5094073;28;20087;-46
2023/08/12 01:25:37;;;;;;;3.85;1.42;;;19.50;99.90;;;;;;5094197;28;20083;-45
2023/08/12 01:28:03;;;;;;;3.63;1.30;;;19.60;99.90;;;;;;5092818;28;20079;-46
2023/08/12 01:30:29;;;;;;;5.07;1.60;;;19.60;99.90;;;;;;5093175;28;20459;-46
2023/08/12 01:33:21;;;;;;;3.03;1.20;;;19.50;99.90;;;;;;5094059;28;20087;-46
2023/08/12 01:36:07;;;;;;;4.03;1.25;;;19.60;99.90;;;;;;5093830;28;20059;-46
2023/08/12 01:38:33;;;;;;;4.97;1.35;;;19.60;99.90;;;;;;5092994;28;20058;-46
2023/08/12 01:41:00;;;;;;;3.38;1.25;;;19.50;99.90;;;;;;5093040;28;20043;-46
2023/08/12 01:43:26;;;;;;;3.15;1.30;;;19.50;99.90;;;;;;5093067;28;20047;-45
2023/08/12 01:45:51;;;;;;;2.75;1.20;;;19.50;99.90;;;;;;5092967;28;20048;-45
2023/08/12 01:48:19;;;;;;;2.63;1.27;;;19.50;99.90;;;;;;5092942;28;20048;-46
2023/08/12 01:50:47;;;;;;;4.07;1.27;;;19.50;99.90;;;;;;5091834;28;20506;-46
2023/08/12 01:53:13;;;;;;;3.67;1.17;;;19.40;99.90;;;;;;5092925;28;20058;-46
2023/08/12 01:55:44;;;;;;;4.07;1.50;;;19.40;99.90;;;;;;5092991;28;20048;-45
2023/08/12 01:58:10;;;;;;;5.07;1.50;;;19.30;99.90;;;;;;5092655;28;20564;-45
2023/08/12 02:00:35;;;;;;;3.05;1.27;;;19.30;99.90;;;;;;5091806;28;20048;-47
2023/08/12 02:03:01;;;;;;;3.97;1.52;;;19.30;99.90;;;;;;5091646;28;20040;-46
2023/08/12 02:05:26;;;;;;;3.22;1.48;;;19.30;99.90;;;;;;5092778;28;20043;-46
2023/08/12 02:07:52;;;;;;;6.07;1.33;;;19.30;99.90;;;;;;5092604;28;20051;-46
2023/08/12 02:10:18;;;;;;;3.78;1.48;;;19.30;99.90;;;;;;5092196;28;20054;-46
2023/08/12 02:12:43;;;;;;;4.68;1.25;;;19.20;99.90;;;;;;5092645;28;20165;-46
2023/08/12 02:15:09;;;;;;;3.92;1.60;;;19.20;99.90;;;;;;5092626;28;20513;-45
2023/08/12 02:17:35;;;;;;;3.15;1.30;;;19.20;99.90;;;;;;5074654;28;20510;-46
2023/08/12 02:20:01;;;;;;;3.42;1.33;;;19.20;99.90;;;;;;5092309;28;20129;-46
2023/08/12 02:22:26;;;;;;;3.25;1.27;;;19.20;99.90;;;;;;5092903;28;20502;-46
2023/08/12 02:24:52;;;;;;;4.50;1.67;;;19.20;99.90;;;;;;5091762;28;20036;-46
2023/08/12 02:27:18;;;;;;;3.95;1.58;;;19.20;99.90;;;;;;5092587;28;20082;-46
2023/08/12 02:29:43;;;;;;;3.28;1.38;;;19.20;99.90;;;;;;5092352;28;20487;-46
2023/08/12 02:32:09;;;;;;;3.80;1.50;;;19.20;99.90;;;;;;5091097;28;20044;-45
2023/08/12 02:34:35;;;;;;;3.78;1.27;;;19.20;99.90;;;;;;5053923;28;1093408;-48
2023/08/12 02:37:00;;;;;;;3.65;1.50;;;19.20;99.90;;;;;;5093325;28;20060;-46
2023/08/12 02:39:26;;;;;;;4.72;1.65;;;19.20;99.90;;;;;;5092187;28;20542;-46
2023/08/12 02:41:52;;;;;;;3.67;1.58;;;19.30;99.90;;;;;;5075596;28;20052;-46
2023/08/12 02:44:17;;;;;;;3.63;1.33;;;19.30;99.90;;;;;;5093348;28;20044;-46
2023/08/12 02:46:43;;;;;;;2.88;1.15;;;19.20;99.90;;;;;;5093233;28;20131;-46
2023/08/12 02:49:09;;;;;;;3.45;1.45;;;19.20;99.90;;;;;;5093216;28;20398;-46
2023/08/12 02:51:34;;;;;;;2.50;1.10;;;19.20;99.90;;;;;;5092169;28;20044;-46
2023/08/12 02:54:00;;;;;;;4.15;1.70;;;19.20;99.90;;;;;;5093624;28;20044;-47
2023/08/12 02:56:26;;;;;;;4.20;1.50;;;19.20;99.90;;;;;;5093562;28;20441;-45
2023/08/12 02:58:52;;;;;;;4.25;1.85;;;19.20;99.90;;;;;;5091805;28;20055;-46
2023/08/12 03:01:18;;;;;;;4.50;1.63;;;19.20;99.90;;;;;;5094919;28;20040;-46
2023/08/12 03:03:44;;;;;;;3.85;1.40;;;19.20;99.90;;;;;;5096708;28;20487;-46
2023/08/12 03:06:10;;;;;;;4.30;1.75;;;19.20;99.90;;;;;;5096464;28;20058;-46
2023/08/12 03:08:36;;;;;;;3.78;1.40;;;19.20;99.90;;;;;;5096710;28;20047;-46
2023/08/12 03:11:02;;;;;;;4.07;1.48;;;19.20;99.90;;;;;;5096649;28;20032;-46
2023/08/12 03:13:28;;;;;;;4.13;1.60;;;19.20;99.90;;;;;;5095678;28;20403;-46
2023/08/12 03:15:54;;;;;;;4.50;1.90;;;19.20;99.90;;;;;;5096494;28;20036;-46
2023/08/12 03:18:20;;;;;;;4.85;1.65;;;19.10;99.90;;;;;;5096477;28;20052;-46
2023/08/12 03:20:46;;;;;;;3.97;1.40;;;19.10;99.90;;;;;;5096173;28;20035;-46
2023/08/12 03:23:12;;;;;;;4.78;2.22;;;19.10;99.90;;;;;;5096349;28;20055;-46
2023/08/12 03:25:37;;;;;;;4.82;1.80;;;19.00;99.90;;;;;;5096491;28;20113;-46
2023/08/12 03:28:03;;;;;;;4.25;1.70;;;19.00;99.90;;;;;;5096427;28;20117;-46
2023/08/12 03:30:29;;;;;;;3.17;1.38;;;19.00;99.90;;;;;;5096067;28;20040;-46
2023/08/12 03:32:56;;;;;;;3.15;1.40;;;18.90;99.90;;;;;;5096145;28;20051;-45
2023/08/12 03:35:21;;;;;;;5.40;1.70;;;18.90;99.90;;;;;;5095782;28;20063;-46
2023/08/12 03:37:47;;;;;;;4.10;1.73;;;18.90;99.90;;;;;;5095766;28;20131;-46
2023/08/12 03:40:13;;;;;;;4.68;1.42;;;18.80;99.90;;;;;;5096205;28;20040;-45
2023/08/12 03:42:38;;;;;;;3.58;1.52;;;18.80;99.90;;;;;;5095902;28;20040;-46
2023/08/12 03:45:04;;;;;;;4.20;1.85;;;18.80;99.90;;;;;;5095927;28;20039;-46
2023/08/12 03:47:30;;;;;;;4.65;1.90;;;18.80;99.90;;;;;;5094812;28;20094;-46
2023/08/12 03:49:56;;;;;;;4.20;1.70;;;18.90;99.90;;;;;;5094787;28;20091;-47
2023/08/12 03:52:22;;;;;;;;;;;18.80;99.90;;;;;;5095402;28;20040;-46
2023/08/12 03:54:47;;;;;;;4.57;1.80;;;18.80;99.90;;;;;;5095875;28;19926;-46
2023/08/12 03:57:13;;;;;;;4.05;1.83;;;18.80;99.90;;;;;;5094497;28;20483;-46
2023/08/12 03:59:39;;;;;;;5.00;2.17;;;18.90;99.90;;;;;;5094403;28;20040;-45
2023/08/12 04:02:04;;;;;;;5.00;1.98;;;18.90;99.90;;;;;;5095456;28;20488;-46
2023/08/12 04:04:30;;;;;;;5.80;2.38;;;18.90;99.90;;;;;;5094139;28;20532;-45
2023/08/12 04:06:56;;;;;;;4.18;1.80;;;18.90;99.90;;;;;;5095626;28;20090;-46
2023/08/12 04:09:21;;;;;;;4.95;1.90;;;18.80;99.90;;;;;;5095493;28;20050;-46
2023/08/12 04:11:47;;;;;;;4.93;2.10;;;18.80;99.90;;;;;;5094819;28;20131;-45
2023/08/12 04:14:13;;;;;;;5.30;2.13;;;18.80;99.90;;;;;;5094948;28;20040;-46
2023/08/12 04:16:39;;;;;;;4.90;2.03;;;18.70;99.90;;;;;;5095352;28;20048;-46
2023/08/12 04:19:05;;;;;;;4.78;1.95;;;18.70;99.90;;;;;;5094126;28;20050;-46
2023/08/12 04:21:31;;;;;;;6.57;2.22;;;18.80;99.90;;;;;;5095183;28;20047;-46
2023/08/12 04:23:56;;;;;;;6.35;2.63;;;18.80;99.90;;;;;;5095468;28;20477;-45
2023/08/12 04:26:22;;;;;;;6.05;2.35;;;18.80;99.90;;;;;;5095178;28;20044;-46
2023/08/12 04:28:48;;;;;;;4.97;2.22;;;18.80;99.90;;;;;;5095093;28;20044;-46
2023/08/12 04:31:14;;;;;;;7.28;3.03;;;18.80;99.90;;;;;;5094948;28;20043;-46
2023/08/12 04:33:39;;;;;;;6.57;2.63;;;18.80;99.90;;;;;;5094874;28;20117;-46
2023/08/12 04:36:05;;;;;;;7.00;2.50;;;18.90;99.90;;;;;;5094777;28;20059;-45
2023/08/12 04:38:31;;;;;;;6.93;2.90;;;18.90;99.90;;;;;;5094962;28;20048;-46
2023/08/12 04:40:57;;;;;;;8.18;2.85;;;19.00;99.90;;;;;;5095080;28;20047;-48
2023/08/12 04:43:23;;;;;;;5.22;2.80;;;19.00;99.90;;;;;;5093610;28;20048;-46
2023/08/12 04:45:48;;;;;;;7.93;2.90;;;19.00;99.90;;;;;;5093524;28;20040;-45
2023/08/12 04:48:15;;;;;;;5.00;2.55;;;19.00;99.90;;;;;;5093369;28;20075;-46
2023/08/12 04:50:41;;;;;;;;;;;19.00;99.90;;;;;;5095177;28;20040;-46
2023/08/12 04:53:07;;;;;;;6.97;2.72;;;19.10;99.90;;;;;;5094656;28;20426;-47
2023/08/12 04:55:37;;;;;;;6.97;3.38;;;19.10;99.90;;;;;;5095020;28;20135;-46
2023/08/12 04:58:03;;;;;;;7.05;3.25;;;19.10;99.90;;;;;;5094549;28;20476;-46
2023/08/12 05:00:28;;;;;;;6.82;2.97;;;19.20;99.90;;;;;;5094517;28;20090;-45
2023/08/12 05:02:54;;;;;;;6.93;3.40;;;19.20;99.90;;;;;;5094271;28;20040;-46
2023/08/12 05:05:20;;;;;;;6.13;3.22;;;19.20;99.90;;;;;;5094676;28;20052;-46
2023/08/12 05:07:49;;;;;;;9.32;3.38;;;19.30;99.90;;;;;;5094460;28;20043;-46
2023/08/12 05:10:18;;;;;;;7.32;3.67;;;19.20;99.90;;;;;;5094350;28;20079;-46
2023/08/12 05:12:44;;;;;;;6.90;3.17;;;19.30;99.90;;;;;;5094140;28;20087;-46
2023/08/12 05:15:10;;;;;;;8.45;3.40;;;19.30;99.90;;;;;;5094306;28;20060;-46
2023/08/12 05:17:36;;;;;;;6.82;3.35;;;19.30;99.90;;;;;;5093988;28;20044;-46
2023/08/12 05:20:03;;;;;;;7.55;3.50;;;19.30;99.90;;;;;;5094170;28;20387;-46
2023/08/12 05:22:28;;;;;;;6.28;3.50;;;19.30;99.90;;;;;;5094136;28;20083;-46
2023/08/12 05:24:54;;;;;;;7.00;3.55;;;19.30;99.90;;;;;;5093985;28;20044;-46
2023/08/12 05:27:20;;;;;;;7.18;3.70;;;19.40;99.90;;;;;;5093939;28;20044;-46
2023/08/12 05:29:45;;;;;;;7.15;3.40;;;19.40;99.90;;;;;;5093038;28;20047;-46
2023/08/12 05:32:11;;;;;;;8.25;3.80;;;19.40;99.90;;;;;;5093899;28;20048;-46
2023/08/12 05:34:37;;;;;;;8.98;3.70;;;19.40;99.90;;;;;;5094108;28;20048;-46
2023/08/12 05:37:02;;;;;;;6.78;3.40;;;19.50;99.90;;;;;;5094147;28;20052;-46
2023/08/12 05:39:28;;;;;;;11.88;3.97;;;19.50;99.90;;;;;;5093770;28;20036;-45
2023/08/12 05:41:54;;;;;;;7.55;3.08;;;19.50;99.90;;;;;;5093835;28;20047;-45
2023/08/12 05:44:19;;;;;;;6.80;3.30;;;19.60;99.90;;;;;;5093736;28;20193;-46
2023/08/12 05:46:45;;;;;;;8.02;3.75;;;19.60;99.90;;;;;;5092377;28;20040;-46
2023/08/12 05:49:11;;;;;;;7.85;3.70;;;19.70;99.90;;;;;;5094033;28;20046;-47
2023/08/12 05:51:38;;;;;;;7.97;3.38;;;19.70;99.90;;;;;;5093756;28;20048;-47
2023/08/12 05:54:04;;;;;;;7.22;3.40;;;19.70;99.90;;;;;;5093801;28;20044;-45
2023/08/12 05:56:30;;;;;;;;;;;19.80;99.90;;;;;;5093486;28;20056;-46
2023/08/12 05:58:55;;;;;;;6.70;3.47;;;19.80;99.90;;;;;;5093683;28;20286;-46
2023/08/12 06:01:21;;;;;;;8.73;4.40;;;19.80;99.90;;;;;;5093278;28;20040;-46
2023/08/12 06:03:47;;;;;;;7.78;3.67;;;19.80;99.90;;;;;;5093907;28;20437;-45
2023/08/12 06:06:12;;;;;;;6.68;3.50;;;19.90;99.90;;;;;;5092483;28;20052;-45
2023/08/12 06:08:38;;;;;;;9.13;3.75;;;19.90;99.90;;;;;;5093633;28;20399;-46
2023/08/12 06:11:04;;;;;;;8.95;4.10;;;19.90;99.90;;;;;;5093675;28;20044;-45
2023/08/12 06:13:30;;;;;;;7.32;3.65;;;19.90;99.90;;;;;;5093688;28;20051;-46
2023/08/12 06:15:55;;;;;;;8.52;3.75;;;20.00;99.90;;;;;;5092178;28;20044;-46
2023/08/12 06:18:21;;;;;;;9.00;4.03;;;20.00;99.90;;;;;;5093600;28;20044;-45
2023/08/12 06:20:47;;;;;;;7.13;3.40;;;20.00;99.90;;;;;;5093451;28;20379;-46
2023/08/12 06:23:12;;;;;;;7.90;3.63;;;20.00;99.90;;;;;;5093586;28;20386;-46
2023/08/12 06:25:38;;;;;;;11.30;4.05;;;20.00;99.90;;;;;;5093510;28;20040;-46
2023/08/12 06:28:04;;;;;;;9.63;3.85;;;20.10;99.90;;;;;;5092391;28;20052;-46
2023/08/12 06:30:30;;;;;;;7.72;3.65;;;20.10;99.90;;;;;;5093179;28;20055;-46
2023/08/12 06:32:56;;;;;;;8.13;3.55;;;20.10;99.90;;;;;;5093467;28;20372;-46
2023/08/12 06:35:21;;;;;;;7.90;3.88;;;20.20;99.90;;;;;;5093696;28;20109;-46
2023/08/12 06:37:47;;;;;;;7.05;3.35;;;20.20;99.90;;;;;;5097353;28;20063;-46
2023/08/12 06:40:13;;;;;;;9.02;4.40;;;20.20;99.90;;;;;;5096190;28;20071;-46
2023/08/12 06:42:39;;;;;;;7.82;3.67;;;20.20;99.90;;;;;;5097112;28;20403;-45
2023/08/12 06:45:05;;;;;;;8.45;3.92;;;20.20;99.90;;;;;;5096955;28;20040;-45
2023/08/12 06:47:31;;;;;;;;;;;20.30;99.90;;;;;;5097228;28;20063;-46
2023/08/12 06:49:56;;;;;;;7.40;3.35;;;20.30;99.90;;;;;;5097147;28;19920;-46
2023/08/12 06:52:22;;;;;;;7.53;3.38;;;20.30;99.90;;;;;;5096941;28;20475;-46
2023/08/12 06:54:48;;;;;;;10.35;3.95;;;20.30;99.90;;;;;;5096867;28;20047;-46
2023/08/12 06:57:13;;;;;;;7.43;3.58;;;20.30;99.90;;;;;;5096697;28;20051;-45
2023/08/12 06:59:39;;;;;;;9.93;3.97;;;20.30;99.90;;;;;;5096559;28;20052;-46
2023/08/12 07:02:06;;;;;;;9.65;3.95;;;20.40;99.90;;;;;;5096846;28;20130;-46
2023/08/12 07:04:32;;;;;;;6.82;3.65;;;20.40;99.90;;;;;;5097149;28;20391;-45
2023/08/12 07:06:59;;;;;;;9.27;3.40;;;20.40;99.90;;;;;;5096824;28;20044;-45
2023/08/12 07:09:24;;;;;;;7.32;3.72;;;20.40;99.90;;;;;;5095679;28;20542;-46
2023/08/12 07:11:50;;;;;;;8.90;4.15;;;20.40;99.90;;;;;;5096537;28;20087;-46
2023/08/12 07:14:16;;;;;;;10.18;3.95;;;20.40;99.90;;;;;;5095137;28;20499;-46
2023/08/12 07:16:41;;;;;;;7.65;3.40;;;20.40;99.90;;;;;;5096744;28;20086;-46
2023/08/12 07:19:07;;;;;;;7.70;4.05;;;20.40;99.90;;;;;;5096735;28;20456;-45
2023/08/12 07:21:33;;;;;;;8.98;4.07;;;20.40;99.90;;;;;;5096356;28;20040;-46
2023/08/12 07:23:58;;;;;;;8.85;4.10;;;20.40;99.90;;;;;;5096396;28;20487;-45
2023/08/12 07:26:24;;;;;;;9.70;3.78;;;20.40;99.90;;;;;;5096397;28;20395;-46
2023/08/12 07:28:50;;;;;;;7.20;4.05;;;20.40;99.90;;;;;;5096058;28;20135;-45
2023/08/12 07:31:16;;;;;;;8.30;4.63;;;20.40;99.90;;;;;;5096498;28;20044;-46
2023/08/12 07:33:41;;;;;;;9.70;4.50;;;20.40;99.90;;;;;;5096199;28;20048;-46
2023/08/12 07:36:07;;;;;;;8.40;4.30;;;20.40;99.90;;;;;;5096268;28;20071;-46
2023/08/12 07:38:33;;;;;;;8.85;4.45;;;20.40;99.90;;;;;;5095364;28;20059;-46
2023/08/12 07:40:58;;;;;;;9.30;4.25;;;20.40;99.90;;;;;;5095984;28;20040;-46
2023/08/12 07:43:24;;;;;;;10.23;3.78;;;20.40;99.90;;;;;;5095814;28;20451;-46
2023/08/12 07:45:53;;;;;;;7.45;3.78;;;20.40;99.90;;;;;;5095939;28;20372;-46
2023/08/12 07:48:20;;;;;;;7.80;4.28;;;20.50;99.90;;;;;;5095844;28;20036;-45
2023/08/12 07:50:48;;;;;;;8.57;4.47;;;20.50;99.90;;;;;;5095844;28;20047;-46
2023/08/12 07:53:15;;;;;;;8.70;4.07;;;20.50;99.90;;;;;;5095859;28;20433;-46
2023/08/12 07:55:41;;;;;;;10.30;4.78;;;20.50;99.90;;;;;;5094748;28;20051;-46
2023/08/12 07:58:07;;;;;;;9.07;4.53;;;20.60;99.90;;;;;;5095674;28;20044;-47
2023/08/12 08:00:33;;;;;;;8.43;4.60;;;20.60;99.90;;;;;;5095630;28;20536;-45
2023/08/12 08:02:59;;;;;;;;;;;20.50;99.90;;;;;;5096030;28;20227;-45
2023/08/12 08:05:24;;;;;;;8.48;4.78;;;20.60;99.90;;;;;;5095469;28;20368;-46
2023/08/12 08:07:50;;;;;;;9.15;4.50;;;20.60;99.90;;;;;;5095323;28;20067;-46
2023/08/12 08:10:16;;;;;;;11.35;4.55;;;20.60;99.90;;;;;;5094294;28;20036;-46
2023/08/12 08:12:42;;;;;;;8.90;4.80;;;20.60;99.90;;;;;;5095196;28;20044;-45
2023/08/12 08:15:08;;;;;;;11.15;5.20;;;20.60;99.90;;;;;;5095649;28;20044;-46
2023/08/12 08:17:33;;;;;;;11.40;5.63;;;20.50;99.90;;;;;;5095380;28;20044;-46
2023/08/12 08:19:59;;;;;;;10.30;5.68;;;20.60;99.90;;;;;;5095232;28;20535;-45
2023/08/12 08:22:25;;;;;;;8.43;4.53;;;20.60;99.90;;;;;;5094417;28;20052;-45
2023/08/12 08:24:50;;;;;;;9.75;4.57;;;20.60;99.90;;;;;;5094227;28;20201;-46
2023/08/12 08:27:16;;;;;;;9.77;5.70;;;20.60;99.90;;;;;;5094894;28;20051;-46
2023/08/12 08:29:42;;;;;;;10.80;5.72;;;20.60;99.90;;;;;;5094091;28;20063;-46
2023/08/12 08:32:08;;;;;;;9.80;5.80;;;20.60;99.90;;;;;;5095090;28;20177;-45
2023/08/12 08:34:34;;;;;;;10.05;5.32;;;20.60;99.90;;;;;;5093634;28;20135;-46
2023/08/12 08:37:00;;;;;;;10.80;5.68;;;20.60;99.90;;;;;;5094808;28;20509;-46
2023/08/12 08:39:26;;;;;;;12.05;5.60;;;20.60;99.90;;;;;;5094956;28;20052;-46
2023/08/12 08:41:53;;;;;;;;;;;20.60;99.90;;;;;;5095060;28;20044;-46
2023/08/12 08:44:22;;;;;;;10.65;5.47;;;20.60;99.90;;;;;;5127939;27;20423;-46
2023/08/12 08:46:52;;;;;;;14.55;6.43;;;20.60;99.90;;;;;;5094697;28;20042;-46
2023/08/12 08:49:18;;;;;;;11.63;5.75;;;20.60;99.90;;;;;;5094951;28;20400;-46
2023/08/12 08:51:45;;;;;;;;;;;20.70;99.90;;;;;;5095009;28;20054;-46
2023/08/12 08:54:11;;;;;;;11.65;5.72;;;20.70;99.90;;;;;;5094738;28;19920;-46
2023/08/12 08:56:38;;;;;;;10.32;5.70;;;20.70;99.90;;;;;;5094411;28;20090;-47
2023/08/12 08:59:04;;;;;;;11.80;5.72;;;20.70;99.90;;;;;;5094119;28;20444;-46
2023/08/12 09:01:31;;;;;;;11.68;5.53;;;20.70;99.90;;;;;;5094447;28;20047;-46
2023/08/12 09:03:58;;;;;;;9.48;5.75;;;20.60;99.90;;;;;;5094165;28;20495;-46
2023/08/12 09:06:29;;;;;;;10.65;6.05;;;20.60;99.90;;;;;;5094405;28;20093;-46
2023/08/12 09:08:55;;;;;;;12.82;6.13;;;20.70;99.90;;;;;;5094348;28;20100;-45
2023/08/12 09:11:21;;;;;;;12.00;5.93;;;20.70;99.90;;;;;;5094314;28;20032;-46
2023/08/12 09:13:47;;;;;;;10.00;5.70;;;20.60;99.90;;;;;;5093093;28;20403;-48
2023/08/12 09:16:13;;;;;;;11.98;5.93;;;20.60;99.90;;;;;;5094117;28;20044;-49
2023/08/12 09:18:42;;;;;;;12.98;6.63;;;20.60;99.90;;;;;;5094406;28;20044;-48
2023/08/12 09:21:08;;;;;;;11.63;6.15;;;20.60;99.90;;;;;;5092845;28;20097;-49
2023/08/12 09:23:39;;;;;;;10.60;6.00;;;20.60;99.90;;;;;;5092990;28;20048;-47
2023/08/12 09:26:14;;;;;;;13.25;7.40;;;20.60;99.90;;;;;;5093681;28;20058;-52
2023/08/12 09:28:40;;;;;;;14.60;7.40;;;20.60;99.90;;;;;;5094403;28;20044;-48
2023/08/12 09:31:05;;;;;;;;;;;20.50;99.90;;;;;;5094466;28;20050;-49
2023/08/12 09:33:31;;;;;;;13.57;6.57;;;20.50;99.90;;;;;;5094074;28;19919;-48
2023/08/12 09:35:57;;;;;;;13.95;7.35;;;20.50;99.90;;;;;;5094515;28;20060;-47
2023/08/12 09:38:22;;;;;;;13.75;6.32;;;20.50;99.90;;;;;;5093683;28;20487;-46
2023/08/12 09:40:48;;;;;;;12.98;6.82;;;20.50;99.90;;;;;;5092660;28;20518;-47
2023/08/12 09:43:16;;;;;;;12.93;7.43;;;20.50;99.90;;;;;;5094256;28;20044;-47
2023/08/12 09:45:44;;;;;;;11.90;6.82;;;20.50;99.90;;;;;;5093823;28;20052;-47
2023/08/12 09:48:10;;;;;;;12.50;6.93;;;20.50;99.90;;;;;;5093838;28;20083;-47
2023/08/12 09:50:36;;;;;;;13.95;7.47;;;20.50;99.90;;;;;;5092635;28;20083;-47
2023/08/12 09:53:03;;;;;;;12.93;7.30;;;20.60;99.90;;;;;;5094204;28;20446;-47
2023/08/12 09:55:31;;;;;;;12.68;7.78;;;20.60;99.90;;;;;;5093608;28;20491;-47
2023/08/12 09:57:59;;;;;;;16.15;8.48;;;20.60;99.90;;;;;;5093806;28;20518;-47
2023/08/12 10:00:25;;;;;;;12.63;7.32;;;20.60;99.90;;;;;;5093651;28;20044;-46
2023/08/12 10:02:52;;;;;;;13.88;7.15;;;20.60;99.90;;;;;;5093594;28;20044;-46
2023/08/12 10:05:32;;;;;;;14.07;7.35;;;20.60;99.90;;;;;;5093637;28;20069;-46
2023/08/12 10:08:01;;;;;;;15.55;8.38;;;20.60;99.90;;;;;;5093571;28;20048;-46
2023/08/12 10:10:28;;;;;;;14.68;8.15;;;20.60;99.90;;;;;;5094451;28;20097;-46
2023/08/12 10:12:55;;;;;;;14.07;8.73;;;20.60;99.90;;;;;;5096872;28;20044;-47
2023/08/12 10:15:22;;;;;;;15.68;8.40;;;20.60;99.90;;;;;;5097593;28;20048;-45
2023/08/12 10:17:50;;;;;;;15.20;8.55;;;20.60;99.90;;;;;;5097673;28;20044;-46
2023/08/12 10:20:24;;;;;;;16.17;8.60;;;20.60;99.90;;;;;;5097573;28;20036;-46
2023/08/12 10:22:51;;;;;;;13.95;7.88;;;20.60;99.90;;;;;;5097638;28;20048;-46
2023/08/12 10:25:21;;;;;;;14.25;7.85;;;20.60;99.90;;;;;;5097570;28;20043;-46
2023/08/12 10:27:48;;;;;;;13.38;7.45;;;20.60;99.90;;;;;;5097539;28;20114;-46
2023/08/12 10:30:14;;;;;;;11.93;6.85;;;20.60;99.90;;;;;;5097231;28;20048;-47
2023/08/12 10:32:40;;;;;;;10.80;7.03;;;20.60;99.90;;;;;;5097041;28;20054;-46
2023/08/12 10:35:06;;;;;;;12.10;7.63;;;20.50;99.90;;;;;;5097286;28;20388;-46
2023/08/12 10:37:33;;;;;;;11.70;7.45;;;20.60;99.90;;;;;;5097462;28;20466;-47
2023/08/12 10:40:12;;;;;;;12.73;7.22;;;20.60;99.90;;;;;;5096235;28;20482;-47
2023/08/12 10:42:45;;;;;;;11.32;6.80;;;20.60;99.90;;;;;;5097246;28;20052;-46
2023/08/12 10:45:12;;;;;;;13.20;6.50;;;20.60;99.90;;;;;;5096876;28;20044;-46
2023/08/12 10:48:09;;;;;;;10.48;6.10;;;20.60;99.90;;;;;;5097101;28;20139;-46
2023/08/12 10:50:35;;;;;;;10.13;5.80;;;20.60;99.90;;;;;;5097051;28;20083;-45
2023/08/12 10:53:32;;;;;;;9.32;4.88;;;20.70;99.90;;;;;;5097150;28;20084;-46
2023/08/12 10:56:05;;;;;;;9.35;4.88;;;20.60;99.90;;;;;;5096810;28;20495;-46
2023/08/12 10:58:35;;;;;;;10.75;6.20;;;20.70;99.90;;;;;;5096963;28;20059;-46
2023/08/12 11:01:00;;;;;;;9.52;4.65;;;20.80;99.90;;;;;;5096664;28;20083;-46
2023/08/12 11:03:31;;;;;;;8.45;4.55;;;20.80;99.90;;;;;;5096841;28;20083;-46
2023/08/12 11:05:59;;;;;;;8.75;4.22;;;20.80;99.90;;;;;;5096637;28;20479;-46
2023/08/12 11:08:29;;;;;;;8.55;4.47;;;20.80;99.90;;;;;;5096764;28;20127;-45
2023/08/12 11:10:56;;;;;;;8.13;3.88;;;20.80;99.90;;;;;;5078978;28;20079;-46
2023/08/12 11:13:22;;;;;;;5.97;3.13;;;20.80;99.90;;;;;;5096730;28;20048;-47
2023/08/12 11:15:49;;;;;;;4.55;2.20;;;20.80;99.90;;;;;;5096511;28;20048;-47
2023/08/12 11:18:21;;;;;;;4.95;2.28;;;20.70;99.90;;;;;;5096565;28;20415;-47
2023/08/12 11:20:48;;;;;;;2.85;1.10;;;20.70;99.90;;;;;;5094902;28;20131;-49
2023/08/12 11:23:14;;;;;;;2.33;1.10;;;20.60;99.90;;;;;;5096073;28;20123;-48
2023/08/12 11:25:42;;;;;;;2.45;1.00;;;20.60;99.90;;;;;;5096753;28;20472;-48
2023/08/12 11:28:08;;;;;;;3.42;1.20;;;20.50;99.90;;;;;;5096262;28;20043;-47
2023/08/12 11:30:34;;;;;;;2.85;0.90;;;20.50;99.90;;;;;;5096352;28;20123;-47
2023/08/12 11:33:01;;;;;;;2.17;1.00;;;20.40;99.90;;;;;;5096046;28;20052;-46
2023/08/12 11:35:28;;;;;;;3.63;1.10;;;20.40;99.90;;;;;;5095027;28;20044;-46
2023/08/12 11:37:56;;;;;;;3.78;1.38;;;20.40;99.90;;;;;;5096124;28;20055;-46
2023/08/12 11:40:23;;;;;;;3.63;1.40;;;20.40;99.90;;;;;;5096030;28;20087;-46
2023/08/12 11:42:50;;;;;;;2.75;1.40;;;20.40;99.90;;;;;;5096068;28;20048;-46
2023/08/12 11:45:19;;;;;;;3.15;1.20;;;20.30;99.90;;;;;;5096071;28;20098;-46
2023/08/12 11:47:47;;;;;;;4.53;1.58;;;20.40;99.90;;;;;;5095900;28;20121;-45
2023/08/12 11:50:13;;;;;;;3.75;1.30;;;20.40;99.90;;;;;;5095960;28;20123;-45
2023/08/12 11:52:40;;;;;;;3.78;1.52;;;20.40;99.90;;;;;;5095875;28;20177;-46
2023/08/12 11:55:07;;;;;;;2.83;1.27;;;20.40;99.90;;;;;;5094769;28;20051;-46
2023/08/12 11:57:37;;;;;;;3.35;1.10;;;20.40;99.90;;;;;;5094626;28;20052;-46
2023/08/12 12:00:13;;;;;;;3.58;1.20;;;20.40;99.90;;;;;;5095568;28;20387;-45
2023/08/12 12:02:41;;;;;;;3.20;1.23;;;20.40;99.90;;;;;;5095784;28;20050;-46
2023/08/12 12:05:11;;;;;;;3.17;1.25;;;20.40;99.90;;;;;;5094878;28;20056;-45
2023/08/12 12:07:38;;;;;;;2.60;1.10;;;20.40;99.90;;;;;;5095596;28;20499;-45
2023/08/12 12:10:05;;;;;;;3.00;1.13;;;20.40;99.90;;;;;;5095534;28;20048;-46
2023/08/12 12:12:35;;;;;;;4.82;1.50;;;20.40;99.90;;;;;;5095320;28;20044;-48
2023/08/12 12:15:00;;;;;;;3.10;1.20;;;20.40;99.90;;;;;;5094600;28;20116;-49
2023/08/12 12:17:26;;;;;;;2.92;1.42;;;20.20;99.90;;;;;;5095729;28;20075;-48
2023/08/12 12:19:59;;;;;;;2.45;1.10;;;20.00;99.90;;;;;;5095558;28;20058;-48
2023/08/12 12:22:35;;;;;;;2.17;0.95;;;19.90;99.90;;;;;;5095388;28;20064;-49
2023/08/12 12:25:06;;;;;;;4.00;1.30;;;19.80;99.90;;;;;;5095148;28;20050;-49
2023/08/12 12:27:35;;;;;;;3.70;1.02;;;19.70;99.90;;;;;;5095285;28;20069;-48
2023/08/12 12:30:01;;;;;;;2.20;0.77;;;19.60;99.90;;;;;;5095112;28;20044;-47
2023/08/12 12:32:27;;;;;;;2.47;0.90;;;19.60;99.90;;;;;;5094934;28;20088;-48
2023/08/12 12:34:54;;;;;;;2.63;1.10;;;19.50;99.90;;;;;;5094008;28;20052;-47
2023/08/12 12:37:20;;;;;;;3.63;1.02;;;19.40;99.90;;;;;;5095017;28;20128;-47
2023/08/12 12:39:46;;;;;;;5.28;1.33;;;19.40;99.90;;;;;;5076706;28;20130;-47
2023/08/12 12:42:12;;;;;;;3.42;1.13;;;19.30;99.90;;;;;;5094956;28;20040;-47
2023/08/12 12:44:38;;;;;;;3.05;0.90;;;19.30;99.90;;;;;;5095113;28;20118;-45
2023/08/12 12:47:05;;;;;;;3.28;1.08;;;19.30;99.90;;;;;;5094641;28;20490;-45